createdAt,value
2019-04-01T00:01:31.587Z,101392.39
2019-04-01T00:04:03.550Z,101386.88
2019-04-01T00:06:38.705Z,101391.29
2019-04-01T00:09:12.810Z,101395.68
2019-04-01T00:11:46.396Z,101394.45
2019-04-01T00:14:18.317Z,101396.69
2019-04-01T00:16:51.480Z,101402.85
2019-04-01T00:19:23.557Z,101401.59
2019-04-01T00:21:55.327Z,101396.05
2019-04-01T00:24:30.317Z,101398.28
2019-04-01T00:27:03.848Z,101401.39
2019-04-01T00:29:36.079Z,101401.84
2019-04-01T00:32:07.859Z,101404.06
2019-04-01T00:34:41.813Z,101405.44
2019-04-01T00:37:13.535Z,101406.33
2019-04-01T00:39:45.690Z,101402.08
2019-04-01T00:42:48.339Z,101409.89
2019-04-01T00:45:21.566Z,101406.47
2019-04-01T00:47:53.300Z,101409.13
2019-04-01T00:50:25.390Z,101418.70
2019-04-01T00:52:57.132Z,101421.38
2019-04-01T00:55:29.106Z,101421.82
2019-04-01T00:58:00.900Z,101426.16
2019-04-01T01:00:33.287Z,101427.51
2019-04-01T01:03:08.237Z,101430.16
2019-04-01T01:05:40.222Z,101432.77
2019-04-01T01:08:12.056Z,101436.67
2019-04-01T01:10:44.162Z,101438.89
2019-04-01T01:13:15.946Z,101441.52
2019-04-01T01:15:48.090Z,101443.28
2019-04-01T01:18:19.837Z,101455.41
2019-04-01T01:20:54.132Z,101457.59
2019-04-01T01:23:27.987Z,101464.14
2019-04-01T01:25:59.802Z,101459.00
2019-04-01T01:28:31.586Z,101459.84
2019-04-01T01:31:03.663Z,101462.05
2019-04-01T01:33:35.402Z,101463.36
2019-04-01T01:36:07.383Z,101469.02
2019-04-01T01:38:39.287Z,101468.22
2019-04-01T01:41:11.320Z,101477.30
2019-04-01T01:43:43.039Z,101478.59
2019-04-01T01:46:15.240Z,101481.65
2019-04-01T01:48:47.109Z,101487.22
2019-04-01T01:51:18.923Z,101493.25
2019-04-01T01:53:50.712Z,101489.84
2019-04-01T01:56:22.804Z,101490.73
2019-04-01T01:58:54.589Z,101495.08
2019-04-01T02:01:28.716Z,101499.00
2019-04-01T02:04:00.462Z,101499.48
2019-04-01T02:06:32.399Z,101499.92
2019-04-01T02:09:05.031Z,101509.00
2019-04-01T02:11:37.228Z,101506.42
2019-04-01T02:14:09.104Z,101509.43
2019-04-01T02:16:41.291Z,101512.91
2019-04-01T02:19:13.052Z,101515.91
2019-04-01T02:21:50.071Z,101512.47
2019-04-01T02:24:24.824Z,101518.55
2019-04-01T02:26:56.795Z,101518.95
2019-04-01T02:29:28.554Z,101513.78
2019-04-01T02:32:00.675Z,101523.27
2019-04-01T02:34:32.404Z,101519.41
2019-04-01T02:37:04.455Z,101515.13
2019-04-01T02:39:36.265Z,101526.75
2019-04-01T02:42:08.059Z,101531.92
2019-04-01T02:44:41.079Z,101521.16
2019-04-01T02:47:13.258Z,101529.39
2019-04-01T02:49:45.003Z,101531.55
2019-04-01T02:52:18.943Z,101535.45
2019-04-01T02:54:50.725Z,101538.50
2019-04-01T02:57:24.539Z,101539.83
2019-04-01T02:59:55.961Z,101541.56
2019-04-01T03:02:29.325Z,101544.60
2019-04-01T03:05:01.185Z,101551.53
2019-04-01T03:07:33.137Z,101555.41
2019-04-01T03:10:05.100Z,101554.14
2019-04-01T03:12:37.057Z,101552.42
2019-04-01T03:15:08.969Z,101558.07
2019-04-01T03:17:41.202Z,101557.22
2019-04-01T03:20:15.431Z,101562.00
2019-04-01T03:22:47.503Z,101565.43
2019-04-01T03:25:20.148Z,101560.27
2019-04-01T03:27:52.223Z,101573.23
2019-04-01T03:30:24.005Z,101572.84
2019-04-01T03:32:56.377Z,101574.14
2019-04-01T03:35:28.233Z,101580.61
2019-04-01T03:38:00.387Z,101581.47
2019-04-01T03:40:33.184Z,101594.02
2019-04-01T03:43:05.240Z,101590.14
2019-04-01T03:45:36.963Z,101594.02
2019-04-01T03:48:10.802Z,101602.68
2019-04-01T03:50:42.748Z,101604.44
2019-04-01T03:53:14.835Z,101607.44
2019-04-01T03:55:46.589Z,101617.38
2019-04-01T03:58:18.565Z,101616.55
2019-04-01T04:00:50.501Z,101619.13
2019-04-01T04:03:22.902Z,101623.87
2019-04-01T04:05:54.670Z,101623.87
2019-04-01T04:08:27.222Z,101624.77
2019-04-01T04:11:00.614Z,101632.97
2019-04-01T04:13:32.402Z,101632.09
2019-04-01T04:16:04.338Z,101637.27
2019-04-01T04:18:37.572Z,101639.86
2019-04-01T04:21:09.366Z,101642.03
2019-04-01T04:23:42.348Z,101646.31
2019-04-01T04:26:14.213Z,101648.91
2019-04-01T04:28:46.311Z,101641.19
2019-04-01T04:31:18.099Z,101661.84
2019-04-01T04:33:50.539Z,101659.69
2019-04-01T04:36:22.328Z,101662.69
2019-04-01T04:38:59.386Z,101669.16
2019-04-01T04:41:32.803Z,101667.86
2019-04-01T04:44:04.868Z,101672.59
2019-04-01T04:46:36.650Z,101672.58
2019-04-01T04:49:08.705Z,101672.13
2019-04-01T04:51:40.465Z,101676.45
2019-04-01T04:54:13.592Z,101676.86
2019-04-01T04:56:45.332Z,101685.06
2019-04-01T04:59:17.206Z,101689.80
2019-04-01T05:01:49.023Z,101689.78
2019-04-01T05:04:21.483Z,101688.04
2019-04-01T05:06:53.657Z,101690.62
2019-04-01T05:09:25.606Z,101689.72
2019-04-01T05:11:57.410Z,101692.70
2019-04-01T05:14:29.281Z,101722.46
2019-04-01T05:17:02.333Z,101709.06
2019-04-01T05:19:34.618Z,101702.97
2019-04-01T05:22:06.784Z,101712.86
2019-04-01T05:24:39.347Z,101716.72
2019-04-01T05:27:13.637Z,101719.25
2019-04-01T05:29:47.997Z,101726.53
2019-04-01T05:32:22.337Z,101726.91
2019-04-01T05:34:58.789Z,101723.81
2019-04-01T05:37:33.679Z,101724.58
2019-04-01T05:40:07.409Z,101728.81
2019-04-01T05:42:39.201Z,101733.88
2019-04-01T05:45:11.553Z,101742.45
2019-04-01T05:47:46.645Z,101740.63
2019-04-01T05:50:18.646Z,101742.66
2019-04-01T05:52:51.297Z,101741.65
2019-04-01T05:55:23.142Z,101743.70
2019-04-01T05:57:54.948Z,101737.95
2019-04-01T06:00:32.900Z,101729.25
2019-04-01T06:03:04.767Z,101741.58
2019-04-01T06:05:37.077Z,101740.60
2019-04-01T06:08:09.746Z,101753.41
2019-04-01T06:10:41.863Z,101744.67
2019-04-01T06:13:13.689Z,101744.09
2019-04-01T06:15:45.549Z,101748.66
2019-04-01T06:18:17.457Z,101752.70
2019-04-01T06:20:49.639Z,101752.98
2019-04-01T06:23:21.411Z,101751.98
2019-04-01T06:25:53.213Z,101750.47
2019-04-01T06:28:25.786Z,101754.59
2019-04-01T06:30:57.735Z,101759.98
2019-04-01T06:33:30.087Z,101763.13
2019-04-01T06:36:02.178Z,101756.39
2019-04-01T06:38:33.955Z,101769.17
2019-04-01T06:41:06.564Z,101774.17
2019-04-01T06:43:38.482Z,101774.23
2019-04-01T06:46:10.316Z,101774.45
2019-04-01T06:48:42.058Z,101779.55
2019-04-01T06:51:14.372Z,101782.25
2019-04-01T06:53:46.111Z,101777.13
2019-04-01T06:56:17.984Z,101785.45
2019-04-01T06:58:49.810Z,101788.59
2019-04-01T07:01:21.908Z,101788.23
2019-04-01T07:03:55.488Z,101795.02
2019-04-01T07:06:27.363Z,101795.18
2019-04-01T07:08:59.142Z,101796.40
2019-04-01T07:11:35.158Z,101801.26
2019-04-01T07:14:07.851Z,101801.80
2019-04-01T07:16:40.137Z,101802.63
2019-04-01T07:19:12.136Z,101804.40
2019-04-01T07:21:44.611Z,101802.90
2019-04-01T07:24:16.407Z,101810.36
2019-04-01T07:26:48.843Z,101811.30
2019-04-01T07:29:20.653Z,101807.64
2019-04-01T07:31:52.759Z,101817.82
2019-04-01T07:34:24.595Z,101817.88
2019-04-01T07:36:56.994Z,101821.25
2019-04-01T07:39:28.761Z,101817.03
2019-04-01T07:42:01.014Z,101819.26
2019-04-01T07:44:32.881Z,101823.47
2019-04-01T07:47:07.612Z,101824.27
2019-04-01T07:49:39.371Z,101815.47
2019-04-01T07:52:11.850Z,101824.98
2019-04-01T07:54:44.468Z,101826.03
2019-04-01T07:57:16.626Z,101830.80
2019-04-01T07:59:48.430Z,101833.52
2019-04-01T08:02:20.520Z,101835.70
2019-04-01T08:04:52.384Z,101832.34
2019-04-01T08:07:25.983Z,101835.41
2019-04-01T08:09:57.797Z,101835.33
2019-04-01T08:12:29.801Z,101836.66
2019-04-01T08:15:01.674Z,101836.81
2019-04-01T08:17:34.150Z,101837.55
2019-04-01T08:20:07.579Z,101839.16
2019-04-01T08:22:43.118Z,101838.86
2019-04-01T08:25:13.210Z,101841.77
2019-04-01T08:27:48.829Z,101844.17
2019-04-01T08:30:21.098Z,101843.23
2019-04-01T08:32:53.094Z,101847.35
2019-04-01T08:35:26.141Z,101852.17
2019-04-01T08:37:58.366Z,101852.55
2019-04-01T08:40:30.151Z,101851.45
2019-04-01T08:43:04.237Z,101855.37
2019-04-01T08:45:36.069Z,101851.62
2019-04-01T08:48:08.266Z,101846.63
2019-04-01T08:50:40.080Z,101845.53
2019-04-01T08:53:12.593Z,101841.17
2019-04-01T08:55:44.786Z,101839.75
2019-04-01T08:58:16.641Z,101839.90
2019-04-01T09:00:48.421Z,101849.17
2019-04-01T09:03:20.440Z,101849.02
2019-04-01T09:05:52.541Z,101844.59
2019-04-01T09:08:26.965Z,101854.25
2019-04-01T09:10:59.718Z,101849.84
2019-04-01T09:13:32.202Z,101849.44
2019-04-01T09:16:04.987Z,101854.91
2019-04-01T09:18:38.284Z,101850.41
2019-04-01T09:21:11.224Z,101853.09
2019-04-01T09:23:43.533Z,101845.53
2019-04-01T09:26:15.553Z,101853.17
2019-04-01T09:28:47.565Z,101854.72
2019-04-01T09:31:19.374Z,101847.20
2019-04-01T09:33:51.247Z,101851.53
2019-04-01T09:36:24.216Z,101855.25
2019-04-01T09:38:56.536Z,101858.84
2019-04-01T09:41:31.083Z,101855.61
2019-04-01T09:44:03.095Z,101853.00
2019-04-01T09:46:34.869Z,101863.68
2019-04-01T09:49:06.848Z,101853.73
2019-04-01T09:51:48.354Z,101858.68
2019-04-01T09:54:12.181Z,101857.44
2019-04-01T09:56:43.971Z,101857.17
2019-04-01T09:59:16.232Z,101861.24
2019-04-01T10:01:49.164Z,101858.73
2019-04-01T10:04:20.986Z,101873.24
2019-04-01T10:06:52.758Z,101867.81
2019-04-01T10:09:25.134Z,101863.94
2019-04-01T10:11:56.993Z,101854.04
2019-04-01T10:14:29.251Z,101854.06
2019-04-01T10:17:01.052Z,101856.38
2019-04-01T10:19:34.079Z,101862.34
2019-04-01T10:22:05.830Z,101864.56
2019-04-01T10:24:37.710Z,101862.65
2019-04-01T10:27:09.447Z,101855.06
2019-04-01T10:29:41.284Z,101850.61
2019-04-01T10:32:13.074Z,101845.35
2019-04-01T10:34:45.170Z,101848.89
2019-04-01T10:37:17.037Z,101847.25
2019-04-01T10:39:49.327Z,101848.35
2019-04-01T10:42:21.323Z,101852.17
2019-04-01T10:44:53.327Z,101848.57
2019-04-01T10:47:25.582Z,101847.70
2019-04-01T10:49:57.805Z,101833.23
2019-04-01T10:52:29.609Z,101835.40
2019-04-01T10:55:02.145Z,101838.84
2019-04-01T10:57:35.279Z,101849.20
2019-04-01T11:00:08.493Z,101846.73
2019-04-01T11:02:40.434Z,101843.73
2019-04-01T11:05:12.620Z,101845.20
2019-04-01T11:07:44.652Z,101844.81
2019-04-01T11:10:16.710Z,101841.47
2019-04-01T11:12:49.688Z,101835.94
2019-04-01T11:15:22.342Z,101842.25
2019-04-01T11:17:54.196Z,101845.88
2019-04-01T11:20:26.367Z,101846.54
2019-04-01T11:22:58.271Z,101852.76
2019-04-01T11:25:30.597Z,101844.74
2019-04-01T11:28:02.527Z,101842.45
2019-04-01T11:30:36.915Z,101850.42
2019-04-01T11:33:08.217Z,101841.47
2019-04-01T11:35:40.763Z,101832.98
2019-04-01T11:38:12.676Z,101832.09
2019-04-01T11:40:44.724Z,101834.66
2019-04-01T11:43:16.658Z,101825.75
2019-04-01T11:45:48.559Z,101828.03
2019-04-01T11:48:20.424Z,101825.30
2019-04-01T11:50:53.742Z,101819.56
2019-04-01T11:53:25.939Z,101820.81
2019-04-01T11:55:57.959Z,101818.85
2019-04-01T11:58:29.914Z,101815.73
2019-04-01T12:01:01.866Z,101813.33
2019-04-01T12:03:33.690Z,101817.89
2019-04-01T12:06:05.562Z,101814.94
2019-04-01T12:08:38.547Z,101812.81
2019-04-01T12:11:10.838Z,101815.78
2019-04-01T12:13:42.604Z,101820.86
2019-04-01T12:16:14.772Z,101816.37
2019-04-01T12:18:46.523Z,101814.16
2019-04-01T12:21:18.503Z,101797.64
2019-04-01T12:23:50.370Z,101804.99
2019-04-01T12:26:22.350Z,101796.09
2019-04-01T12:28:54.253Z,101796.86
2019-04-01T12:31:26.286Z,101791.98
2019-04-01T12:33:58.104Z,101796.66
2019-04-01T12:36:30.068Z,101795.83
2019-04-01T12:39:01.821Z,101799.69
2019-04-01T12:41:35.354Z,101793.25
2019-04-01T12:44:07.601Z,101790.71
2019-04-01T12:46:39.572Z,101792.64
2019-04-01T12:49:14.432Z,101784.22
2019-04-01T12:51:46.407Z,101783.42
2019-04-01T12:54:18.200Z,101785.44
2019-04-01T12:56:50.368Z,101784.18
2019-04-01T12:59:22.174Z,101787.09
2019-04-01T13:01:54.223Z,101786.87
2019-04-01T13:04:26.010Z,101778.81
2019-04-01T13:06:58.037Z,101785.59
2019-04-01T13:09:29.830Z,101766.34
2019-04-01T13:12:02.289Z,101771.53
2019-04-01T13:14:35.129Z,101766.38
2019-04-01T13:17:07.069Z,101760.95
2019-04-01T13:19:38.869Z,101772.69
2019-04-01T13:22:12.376Z,101770.23
2019-04-01T13:24:46.836Z,101773.28
2019-04-01T13:27:19.304Z,101763.73
2019-04-01T13:29:52.104Z,101765.70
2019-04-01T13:32:25.164Z,101761.53
2019-04-01T13:34:56.908Z,101761.23
2019-04-01T13:37:28.758Z,101751.67
2019-04-01T13:40:02.782Z,101762.19
2019-04-01T13:42:34.761Z,101747.41
2019-04-01T13:45:07.126Z,101744.96
2019-04-01T13:47:41.228Z,101744.75
2019-04-01T13:50:16.210Z,101741.36
2019-04-01T13:52:46.620Z,101744.15
2019-04-01T13:55:18.406Z,101741.55
2019-04-01T13:57:50.648Z,101745.11
2019-04-01T14:00:27.001Z,101745.72
2019-04-01T14:02:57.230Z,101741.19
2019-04-01T14:05:29.009Z,101730.37
2019-04-01T14:08:01.067Z,101734.22
2019-04-01T14:10:32.901Z,101730.97
2019-04-01T14:13:05.500Z,101722.48
2019-04-01T14:15:37.396Z,101725.90
2019-04-01T14:18:09.625Z,101719.48
2019-04-01T14:20:41.443Z,101720.42
2019-04-01T14:23:13.318Z,101728.70
2019-04-01T14:25:45.262Z,101713.69
2019-04-01T14:28:17.167Z,101712.75
2019-04-01T14:30:49.061Z,101707.13
2019-04-01T14:33:21.210Z,101707.70
2019-04-01T14:35:53.193Z,101714.83
2019-04-01T14:38:25.225Z,101712.13
2019-04-01T14:40:58.220Z,101707.02
2019-04-01T14:43:31.246Z,101701.66
2019-04-01T14:46:03.409Z,101707.50
2019-04-01T14:48:35.528Z,101696.84
2019-04-01T14:51:07.380Z,101698.98
2019-04-01T14:53:39.462Z,101707.61
2019-04-01T14:56:11.256Z,101696.36
2019-04-01T14:58:45.648Z,101691.92
2019-04-01T15:01:17.503Z,101698.81
2019-04-01T15:03:52.744Z,101693.53
2019-04-01T15:06:24.310Z,101684.20
2019-04-01T15:08:56.385Z,101687.06
2019-04-01T15:11:28.157Z,101688.79
2019-04-01T15:14:00.355Z,101681.59
2019-04-01T15:16:32.184Z,101680.95
2019-04-01T15:19:04.329Z,101684.55
2019-04-01T15:21:36.106Z,101684.20
2019-04-01T15:24:08.139Z,101675.25
2019-04-01T15:26:39.936Z,101675.73
2019-04-01T15:29:12.387Z,101673.02
2019-04-01T15:31:44.240Z,101669.55
2019-04-01T15:34:16.161Z,101666.44
2019-04-01T15:36:49.658Z,101661.91
2019-04-01T15:39:21.657Z,101672.69
2019-04-01T15:41:53.455Z,101677.72
2019-04-01T15:44:29.099Z,101670.22
2019-04-01T15:46:59.044Z,101668.64
2019-04-01T15:49:31.538Z,101682.72
2019-04-01T15:52:03.299Z,101684.67
2019-04-01T15:54:35.335Z,101679.43
2019-04-01T15:57:07.179Z,101684.69
2019-04-01T15:59:39.456Z,101663.15
2019-04-01T16:02:11.532Z,101672.11
2019-04-01T16:04:43.527Z,101672.70
2019-04-01T16:07:18.446Z,101670.81
2019-04-01T16:09:51.103Z,101665.53
2019-04-01T16:12:23.754Z,101669.22
2019-04-01T16:14:56.023Z,101666.77
2019-04-01T16:17:27.800Z,101663.72
2019-04-01T16:20:01.997Z,101668.02
2019-04-01T16:22:33.853Z,101672.05
2019-04-01T16:25:06.344Z,101664.54
2019-04-01T16:27:38.159Z,101673.17
2019-04-01T16:30:10.383Z,101663.48
2019-04-01T16:32:42.269Z,101663.66
2019-04-01T16:35:14.147Z,101668.30
2019-04-01T16:37:47.400Z,101675.78
2019-04-01T16:40:19.268Z,101684.90
2019-04-01T16:42:51.030Z,101685.47
2019-04-01T16:45:23.209Z,101682.81
2019-04-01T16:47:55.047Z,101687.81
2019-04-01T16:50:28.588Z,101688.51
2019-04-01T16:53:00.511Z,101689.15
2019-04-01T16:55:32.475Z,101688.66
2019-04-01T16:58:06.370Z,101682.55
2019-04-01T17:00:38.307Z,101693.77
2019-04-01T17:03:13.346Z,101689.15
2019-04-01T17:05:44.939Z,101691.26
2019-04-01T17:08:18.110Z,101688.92
2019-04-01T17:10:50.200Z,101698.50
2019-04-01T17:13:21.991Z,101701.45
2019-04-01T17:15:54.229Z,101702.58
2019-04-01T17:18:25.989Z,101704.89
2019-04-01T17:20:57.871Z,101706.34
2019-04-01T17:23:30.586Z,101706.59
2019-04-01T17:26:02.638Z,101701.22
2019-04-01T17:28:34.403Z,101701.30
2019-04-01T17:31:06.684Z,101708.23
2019-04-01T17:33:38.588Z,101708.37
2019-04-01T17:36:11.174Z,101699.36
2019-04-01T17:38:43.653Z,101710.20
2019-04-01T17:41:15.599Z,101696.64
2019-04-01T17:43:47.474Z,101710.62
2019-04-01T17:46:20.035Z,101711.44
2019-04-01T17:48:51.887Z,101709.97
2019-04-01T17:51:25.189Z,101720.70
2019-04-01T17:54:00.835Z,101720.95
2019-04-01T17:56:32.203Z,101723.88
2019-04-01T17:59:03.992Z,101727.12
2019-04-01T18:01:36.670Z,101734.41
2019-04-01T18:04:09.215Z,101734.70
2019-04-01T18:06:41.307Z,101738.41
2019-04-01T18:09:13.348Z,101742.98
2019-04-01T18:11:45.533Z,101744.98
2019-04-01T18:14:18.984Z,101746.52
2019-04-01T18:16:51.332Z,101745.41
2019-04-01T18:19:23.258Z,101748.70
2019-04-01T18:21:55.648Z,101744.09
2019-04-01T18:24:28.484Z,101744.77
2019-04-01T18:27:01.037Z,101748.91
2019-04-01T18:29:32.976Z,101749.54
2019-04-01T18:32:05.435Z,101753.28
2019-04-01T18:34:38.872Z,101746.93
2019-04-01T18:37:11.634Z,101756.20
2019-04-01T18:39:48.272Z,101751.61
2019-04-01T18:42:21.051Z,101749.59
2019-04-01T18:44:54.105Z,101753.27
2019-04-01T18:47:26.329Z,101753.80
2019-04-01T18:49:58.178Z,101751.31
2019-04-01T18:52:30.244Z,101761.94
2019-04-01T18:55:02.472Z,101757.77
2019-04-01T18:57:34.665Z,101758.80
2019-04-01T19:00:08.765Z,101766.40
2019-04-01T19:02:42.244Z,101772.19
2019-04-01T19:05:14.926Z,101768.02
2019-04-01T19:07:46.795Z,101772.92
2019-04-01T19:10:18.733Z,101773.44
2019-04-01T19:13:04.742Z,101774.88
2019-04-01T19:15:26.685Z,101776.34
2019-04-01T19:18:00.001Z,101775.95
2019-04-01T19:20:32.319Z,101774.76
2019-04-01T19:23:05.128Z,101773.08
2019-04-01T19:25:37.350Z,101770.84
2019-04-01T19:28:09.619Z,101775.53
2019-04-01T19:30:43.079Z,101777.31
2019-04-01T19:33:16.433Z,101779.01
2019-04-01T19:35:48.401Z,101779.01
2019-04-01T19:38:21.521Z,101779.54
2019-04-01T19:40:53.599Z,101779.59
2019-04-01T19:43:26.282Z,101781.00
2019-04-01T19:45:58.554Z,101784.41
2019-04-01T19:48:32.315Z,101781.50
2019-04-01T19:51:04.768Z,101773.29
2019-04-01T19:53:36.979Z,101782.09
2019-04-01T19:56:09.711Z,101789.13
2019-04-01T19:58:42.086Z,101788.39
2019-04-01T20:01:14.583Z,101787.14
2019-04-01T20:03:47.281Z,101783.78
2019-04-01T20:06:19.333Z,101783.45
2019-04-01T20:08:52.358Z,101787.88
2019-04-01T20:11:24.620Z,101788.80
2019-04-01T20:13:57.341Z,101787.98
2019-04-01T20:16:29.522Z,101791.47
2019-04-01T20:19:02.146Z,101794.12
2019-04-01T20:21:34.221Z,101796.33
2019-04-01T20:24:06.427Z,101802.03
2019-04-01T20:26:38.602Z,101797.98
2019-04-01T20:29:11.192Z,101799.63
2019-04-01T20:31:43.678Z,101798.62
2019-04-01T20:34:19.927Z,101800.66
2019-04-01T20:36:53.799Z,101801.81
2019-04-01T20:39:25.721Z,101800.06
2019-04-01T20:41:57.571Z,101804.47
2019-04-01T20:44:29.495Z,101805.41
2019-04-01T20:47:01.711Z,101809.22
2019-04-01T20:49:33.739Z,101808.29
2019-04-01T20:52:05.937Z,101806.12
2019-04-01T20:54:37.986Z,101812.17
2019-04-01T20:57:09.844Z,101813.93
2019-04-01T20:59:41.769Z,101818.38
2019-04-01T21:02:13.866Z,101814.64
2019-04-01T21:04:46.265Z,101816.48
2019-04-01T21:07:18.694Z,101805.39
2019-04-01T21:09:51.013Z,101815.77
2019-04-01T21:12:22.831Z,101816.75
2019-04-01T21:14:56.036Z,101816.47
2019-04-01T21:17:28.297Z,101815.30
2019-04-01T21:20:00.682Z,101812.43
2019-04-01T21:22:33.579Z,101810.34
2019-04-01T21:25:07.695Z,101816.53
2019-04-01T21:27:39.468Z,101814.52
2019-04-01T21:30:12.119Z,101820.27
2019-04-01T21:32:44.360Z,101811.69
2019-04-01T21:35:17.547Z,101814.75
2019-04-01T21:37:49.357Z,101820.91
2019-04-01T21:40:21.315Z,101814.49
2019-04-01T21:42:53.154Z,101810.63
2019-04-01T21:45:25.002Z,101820.63
2019-04-01T21:47:56.809Z,101815.94
2019-04-01T21:50:29.722Z,101809.10
2019-04-01T21:53:02.219Z,101808.77
2019-04-01T21:55:34.619Z,101798.09
2019-04-01T21:58:06.524Z,101811.07
2019-04-01T22:00:45.115Z,101811.11
2019-04-01T22:03:17.024Z,101811.20
2019-04-01T22:05:49.177Z,101803.91
2019-04-01T22:08:20.986Z,101807.83
2019-04-01T22:10:53.066Z,101805.27
2019-04-01T22:13:24.930Z,101804.89
2019-04-01T22:15:57.111Z,101797.17
2019-04-01T22:18:28.893Z,101800.67
2019-04-01T22:21:01.236Z,101801.53
2019-04-01T22:23:33.187Z,101802.45
2019-04-01T22:26:05.256Z,101804.69
2019-04-01T22:28:37.010Z,101802.55
2019-04-01T22:31:09.071Z,101801.72
2019-04-01T22:33:40.799Z,101806.91
2019-04-01T22:36:13.254Z,101804.73
2019-04-01T22:38:45.049Z,101802.59
2019-04-01T22:41:17.135Z,101805.25
2019-04-01T22:43:48.917Z,101799.66
2019-04-01T22:46:20.960Z,101798.42
2019-04-01T22:48:52.784Z,101797.16
2019-04-01T22:51:25.019Z,101804.54
2019-04-01T22:53:56.820Z,101801.55
2019-04-01T22:56:28.831Z,101792.09
2019-04-01T22:59:02.827Z,101792.55
2019-04-01T23:01:34.792Z,101794.76
2019-04-01T23:04:08.122Z,101794.37
2019-04-01T23:06:41.381Z,101794.81
2019-04-01T23:09:13.101Z,101786.63
2019-04-01T23:11:45.093Z,101794.44
2019-04-01T23:14:17.314Z,101790.11
2019-04-01T23:16:49.955Z,101795.30
2019-04-01T23:19:21.749Z,101802.67
2019-04-01T23:21:55.450Z,101797.49
2019-04-01T23:24:28.125Z,101801.83
2019-04-01T23:27:00.574Z,101801.84
2019-04-01T23:29:33.400Z,101798.84
2019-04-01T23:32:06.978Z,101791.94
2019-04-01T23:34:38.751Z,101788.50
2019-04-01T23:37:13.729Z,101791.54
2019-04-01T23:39:45.535Z,101788.55
2019-04-01T23:42:19.190Z,101788.55
2019-04-01T23:44:52.372Z,101788.14
2019-04-01T23:47:25.197Z,101783.41
2019-04-01T23:49:56.960Z,101782.56
2019-04-01T23:52:30.769Z,101779.53
2019-04-01T23:55:03.612Z,101776.53
2019-04-01T23:57:35.925Z,101781.27
